Time;durP1;ratioP1;P1;durP2;ratioP2;P2;SDS_P1;SDS_P2;PMS_P1;PMS_P2;Temp;Humidity;BMP_temperature;BMP_pressure;BME280_temperature;BME280_humidity;BME280_pressure;Samples;Min_cycle;Max_cycle;Signal;HPM_P1;HPM_P2
2022/07/14 22:02:38;;;;;;;10.98;3.42;;;;;;;;;;7302279;19;20094;-80
2022/07/14 22:05:04;;;;;;;8.63;2.42;;;;;;;;;;7342392;19;20495;-77
2022/07/14 22:07:29;;;;;;;11.50;2.88;;;;;;;;;;7370815;19;20013;-78
2022/07/14 22:09:54;;;;;;;9.95;2.50;;;;;;;;;;7362266;19;20003;-76
2022/07/14 22:12:20;;;;;;;10.00;2.80;;;;;;;;;;7371588;19;20044;-77
2022/07/14 22:14:45;;;;;;;8.75;2.90;;;;;;;;;;7372915;19;20018;-77
2022/07/14 22:17:10;;;;;;;10.70;2.88;;;;;;;;;;7364391;19;19999;-80
2022/07/14 22:19:35;;;;;;;6.57;2.50;;;;;;;;;;7362541;19;20011;-77
2022/07/14 22:22:01;;;;;;;6.45;2.72;;;;;;;;;;7377052;19;19995;-77
2022/07/14 22:24:26;;;;;;;11.17;2.80;;;;;;;;;;7375695;19;20002;-78
2022/07/14 22:29:35;;;;;;;9.32;2.72;;;;;;;;;;7376365;19;20765;-76
2022/07/14 22:32:00;;;;;;;6.80;2.70;;;;;;;;;;7372195;19;20014;-78
2022/07/14 22:34:25;;;;;;;9.80;2.87;;;;;;;;;;7363580;19;20228;-80
2022/07/14 22:36:50;;;;;;;8.73;2.70;;;;;;;;;;7371743;19;20993;-79
2022/07/14 22:39:15;;;;;;;9.70;2.97;;;;;;;;;;7377141;19;20002;-77
2022/07/14 22:41:41;;;;;;;10.77;3.03;;;;;;;;;;7376861;19;20106;-78
2022/07/14 22:44:06;;;;;;;10.80;2.80;;;;;;;;;;7365908;19;20576;-78
2022/07/14 22:46:31;;;;;;;5.63;2.67;;;;;;;;;;7362388;19;20576;-79
2022/07/14 22:48:57;;;;;;;8.95;2.80;;;;;;;;;;7370848;19;20014;-79
2022/07/14 22:51:23;;;;;;;8.37;2.80;;;;;;;;;;7364478;19;20017;-79
2022/07/14 22:53:49;;;;;;;7.00;2.63;;;;;;;;;;7366430;19;20267;-80
2022/07/14 22:56:15;;;;;;;8.68;3.05;;;;;;;;;;7371853;19;20038;-76
2022/07/14 23:01:16;;;;;;;9.98;2.70;;;;;;;;;;7299953;19;20014;-78
2022/07/14 23:03:41;;;;;;;7.07;2.80;;;;;;;;;;7352375;19;20030;-71
2022/07/14 23:06:06;;;;;;;7.20;3.08;;;;;;;;;;7366295;19;20007;-81
2022/07/14 23:08:31;;;;;;;8.02;2.42;;;;;;;;;;7371353;19;20006;-73
2022/07/14 23:10:57;;;;;;;7.03;2.75;;;;;;;;;;7374303;19;19995;-78
2022/07/14 23:13:22;;;;;;;12.93;3.13;;;;;;;;;;7375742;19;20395;-77
2022/07/14 23:15:47;;;;;;;7.40;2.70;;;;;;;;;;7377882;19;19995;-73
2022/07/14 23:18:12;;;;;;;8.40;2.67;;;;;;;;;;7370693;19;20387;-78
2022/07/14 23:20:42;;;;;;;6.30;2.40;;;;;;;;;;7370901;19;20006;-78
2022/07/14 23:23:17;;;;;;;8.57;2.60;;;;;;;;;;7377091;19;20021;-81
2022/07/14 23:25:42;;;;;;;9.35;2.97;;;;;;;;;;7373288;19;20019;-78
2022/07/14 23:28:08;;;;;;;8.47;2.43;;;;;;;;;;7374345;19;20038;-80
2022/07/14 23:30:34;;;;;;;8.32;2.35;;;;;;;;;;7376887;19;20251;-78
2022/07/14 23:32:59;;;;;;;10.90;2.47;;;;;;;;;;7368512;19;20060;-73
2022/07/14 23:35:25;;;;;;;9.02;2.20;;;;;;;;;;7369364;19;20360;-77
2022/07/14 23:37:50;;;;;;;8.38;2.20;;;;;;;;;;7379901;19;20022;-79
2022/07/14 23:40:16;;;;;;;5.37;1.87;;;;;;;;;;7374373;19;20576;-83
2022/07/14 23:42:42;;;;;;;7.65;2.10;;;;;;;;;;7378605;19;20263;-77
2022/07/14 23:45:07;;;;;;;8.43;2.25;;;;;;;;;;7377361;19;19998;-77
2022/07/14 23:47:33;;;;;;;11.68;2.17;;;;;;;;;;7373484;19;20011;-77
2022/07/14 23:49:58;;;;;;;8.23;2.15;;;;;;;;;;7372152;19;20486;-82
2022/07/14 23:52:24;;;;;;;7.28;2.17;;;;;;;;;;7376129;19;20007;-79
2022/07/14 23:54:49;;;;;;;6.17;2.10;;;;;;;;;;7377215;19;20090;-78
2022/07/14 23:57:14;;;;;;;7.00;2.10;;;;;;;;;;7368862;19;20588;-80
2022/07/14 23:59:40;;;;;;;5.43;2.00;;;;;;;;;;7373287;19;20267;-78
